Terminal Aerodrome Forecast
Issued by NWS Wilmington, NC

Home | Current Version | Previous Version | Text Only | Print | Product List | Glossary On
Versions: 1 2 3 4 5 6 7 8 9 10 11 12 13 14 15 16 17 18 19 20
909
FTUS42 KILM 211139
TAFMYR
TAF
KMYR 211139Z 2112/2212 24006KT P6SM SCT020 BKN060
     FM211400 19008KT P6SM VCSH SCT025 BKN080
     FM211900 17013KT P6SM FEW030 SCT100 BKN180
     FM220100 21007KT P6SM SCT040 SCT150 BKN200
      TEMPO 2208/2212 4SM BR SCT005 BKN015=

USA.gov is the U.S. government's official web portal to all federal, state and local government web resources and services.